sensor_id;sensor_type;location;lat;lon;timestamp;temperature;humidity
6377;DHT22;3221;48.858;10.128;2023-05-31T00:00:24;14.60;72.80
6377;DHT22;3221;48.858;10.128;2023-05-31T00:02:51;14.50;75.30
6377;DHT22;3221;48.858;10.128;2023-05-31T00:05:18;14.60;75.30
6377;DHT22;3221;48.858;10.128;2023-05-31T00:07:45;14.60;74.90
6377;DHT22;3221;48.858;10.128;2023-05-31T00:10:13;14.60;73.90
6377;DHT22;3221;48.858;10.128;2023-05-31T00:12:40;14.40;75.40
6377;DHT22;3221;48.858;10.128;2023-05-31T00:15:07;14.40;73.10
6377;DHT22;3221;48.858;10.128;2023-05-31T00:17:34;14.30;73.50
6377;DHT22;3221;48.858;10.128;2023-05-31T00:20:15;14.40;74.50
6377;DHT22;3221;48.858;10.128;2023-05-31T00:22:43;14.40;74.00
6377;DHT22;3221;48.858;10.128;2023-05-31T00:25:10;14.40;74.80
6377;DHT22;3221;48.858;10.128;2023-05-31T00:27:38;14.30;75.30
6377;DHT22;3221;48.858;10.128;2023-05-31T00:30:06;14.40;74.50
6377;DHT22;3221;48.858;10.128;2023-05-31T00:32:33;14.20;73.70
6377;DHT22;3221;48.858;10.128;2023-05-31T00:35:00;14.30;76.40
6377;DHT22;3221;48.858;10.128;2023-05-31T00:37:29;14.30;76.00
6377;DHT22;3221;48.858;10.128;2023-05-31T00:40:05;14.40;76.70
6377;DHT22;3221;48.858;10.128;2023-05-31T00:42:33;14.40;76.20
6377;DHT22;3221;48.858;10.128;2023-05-31T00:45:01;14.20;76.90
6377;DHT22;3221;48.858;10.128;2023-05-31T00:47:28;14.40;78.10
6377;DHT22;3221;48.858;10.128;2023-05-31T00:49:56;14.40;75.10
6377;DHT22;3221;48.858;10.128;2023-05-31T00:52:24;14.60;74.70
6377;DHT22;3221;48.858;10.128;2023-05-31T00:54:52;14.20;75.60
6377;DHT22;3221;48.858;10.128;2023-05-31T00:57:19;14.20;74.90
6377;DHT22;3221;48.858;10.128;2023-05-31T00:59:46;14.20;75.10
6377;DHT22;3221;48.858;10.128;2023-05-31T01:02:14;14.20;75.50
6377;DHT22;3221;48.858;10.128;2023-05-31T01:04:44;14.20;74.60
6377;DHT22;3221;48.858;10.128;2023-05-31T01:07:12;14.10;75.10
6377;DHT22;3221;48.858;10.128;2023-05-31T01:09:41;14.10;74.80
6377;DHT22;3221;48.858;10.128;2023-05-31T01:12:20;14.00;74.70
6377;DHT22;3221;48.858;10.128;2023-05-31T01:17:45;14.20;75.50
6377;DHT22;3221;48.858;10.128;2023-05-31T01:20:16;14.10;74.50
6377;DHT22;3221;48.858;10.128;2023-05-31T01:23:04;14.00;75.30
6377;DHT22;3221;48.858;10.128;2023-05-31T01:28:49;13.90;75.90
6377;DHT22;3221;48.858;10.128;2023-05-31T01:31:21;14.10;76.40
6377;DHT22;3221;48.858;10.128;2023-05-31T01:33:52;13.90;75.70
6377;DHT22;3221;48.858;10.128;2023-05-31T01:36:22;13.90;75.50
6377;DHT22;3221;48.858;10.128;2023-05-31T01:38:49;13.70;74.80
6377;DHT22;3221;48.858;10.128;2023-05-31T01:41:17;13.80;76.20
6377;DHT22;3221;48.858;10.128;2023-05-31T01:43:46;14.00;75.10
6377;DHT22;3221;48.858;10.128;2023-05-31T01:46:15;14.10;75.90
6377;DHT22;3221;48.858;10.128;2023-05-31T01:48:45;13.80;75.50
6377;DHT22;3221;48.858;10.128;2023-05-31T01:51:14;13.90;76.60
6377;DHT22;3221;48.858;10.128;2023-05-31T01:53:42;13.80;76.50
6377;DHT22;3221;48.858;10.128;2023-05-31T01:56:10;13.80;75.20
6377;DHT22;3221;48.858;10.128;2023-05-31T01:58:39;13.80;75.30
6377;DHT22;3221;48.858;10.128;2023-05-31T02:01:12;13.70;75.30
6377;DHT22;3221;48.858;10.128;2023-05-31T02:03:40;13.80;76.00
6377;DHT22;3221;48.858;10.128;2023-05-31T02:06:08;13.50;76.70
6377;DHT22;3221;48.858;10.128;2023-05-31T02:08:35;13.80;77.20
6377;DHT22;3221;48.858;10.128;2023-05-31T02:11:02;13.90;77.20
6377;DHT22;3221;48.858;10.128;2023-05-31T02:13:30;13.80;77.50
6377;DHT22;3221;48.858;10.128;2023-05-31T02:15:57;13.70;77.30
6377;DHT22;3221;48.858;10.128;2023-05-31T02:18:25;13.70;78.60
6377;DHT22;3221;48.858;10.128;2023-05-31T02:20:56;13.70;78.10
6377;DHT22;3221;48.858;10.128;2023-05-31T02:23:23;13.80;77.90
6377;DHT22;3221;48.858;10.128;2023-05-31T02:25:51;13.60;77.50
6377;DHT22;3221;48.858;10.128;2023-05-31T02:28:18;13.60;78.00
6377;DHT22;3221;48.858;10.128;2023-05-31T02:30:56;13.50;77.20
6377;DHT22;3221;48.858;10.128;2023-05-31T02:33:24;13.70;78.30
6377;DHT22;3221;48.858;10.128;2023-05-31T02:35:51;13.60;77.40
6377;DHT22;3221;48.858;10.128;2023-05-31T02:38:20;13.70;77.60
6377;DHT22;3221;48.858;10.128;2023-05-31T02:40:47;13.60;78.00
6377;DHT22;3221;48.858;10.128;2023-05-31T02:43:14;13.60;77.40
6377;DHT22;3221;48.858;10.128;2023-05-31T02:45:41;13.70;78.70
6377;DHT22;3221;48.858;10.128;2023-05-31T02:48:10;13.60;77.80
6377;DHT22;3221;48.858;10.128;2023-05-31T02:50:37;13.60;78.50
6377;DHT22;3221;48.858;10.128;2023-05-31T02:53:16;13.60;78.90
6377;DHT22;3221;48.858;10.128;2023-05-31T02:55:51;13.60;78.60
6377;DHT22;3221;48.858;10.128;2023-05-31T02:58:18;13.50;78.10
6377;DHT22;3221;48.858;10.128;2023-05-31T03:01:11;13.50;78.80
6377;DHT22;3221;48.858;10.128;2023-05-31T03:04:01;13.50;78.30
6377;DHT22;3221;48.858;10.128;2023-05-31T03:06:32;13.40;80.40
6377;DHT22;3221;48.858;10.128;2023-05-31T03:09:01;13.40;80.10
6377;DHT22;3221;48.858;10.128;2023-05-31T03:11:32;13.30;79.30
6377;DHT22;3221;48.858;10.128;2023-05-31T03:13:59;13.30;79.60
6377;DHT22;3221;48.858;10.128;2023-05-31T03:16:39;13.20;79.30
6377;DHT22;3221;48.858;10.128;2023-05-31T03:19:07;13.10;79.80
6377;DHT22;3221;48.858;10.128;2023-05-31T03:21:35;13.50;78.50
6377;DHT22;3221;48.858;10.128;2023-05-31T03:24:03;13.20;80.20
6377;DHT22;3221;48.858;10.128;2023-05-31T03:26:31;13.20;80.30
6377;DHT22;3221;48.858;10.128;2023-05-31T03:28:57;13.20;79.60
6377;DHT22;3221;48.858;10.128;2023-05-31T03:31:25;13.10;80.20
6377;DHT22;3221;48.858;10.128;2023-05-31T03:33:56;13.10;81.00
6377;DHT22;3221;48.858;10.128;2023-05-31T03:36:23;13.20;81.30
6377;DHT22;3221;48.858;10.128;2023-05-31T03:38:50;13.10;81.10
6377;DHT22;3221;48.858;10.128;2023-05-31T03:41:17;13.00;81.10
6377;DHT22;3221;48.858;10.128;2023-05-31T03:43:45;13.00;81.30
6377;DHT22;3221;48.858;10.128;2023-05-31T03:46:12;13.10;81.00
6377;DHT22;3221;48.858;10.128;2023-05-31T03:48:40;13.00;81.60
6377;DHT22;3221;48.858;10.128;2023-05-31T03:51:07;13.00;82.30
6377;DHT22;3221;48.858;10.128;2023-05-31T03:53:34;13.00;81.50
6377;DHT22;3221;48.858;10.128;2023-05-31T03:56:01;13.00;81.10
6377;DHT22;3221;48.858;10.128;2023-05-31T03:58:30;12.90;81.50
6377;DHT22;3221;48.858;10.128;2023-05-31T04:00:58;13.00;80.70
6377;DHT22;3221;48.858;10.128;2023-05-31T04:03:27;13.10;80.30
6377;DHT22;3221;48.858;10.128;2023-05-31T04:05:54;13.00;80.30
6377;DHT22;3221;48.858;10.128;2023-05-31T04:08:21;12.90;81.50
6377;DHT22;3221;48.858;10.128;2023-05-31T04:10:50;12.70;82.00
6377;DHT22;3221;48.858;10.128;2023-05-31T04:13:19;12.80;82.10
6377;DHT22;3221;48.858;10.128;2023-05-31T04:15:49;12.90;82.00
6377;DHT22;3221;48.858;10.128;2023-05-31T04:18:24;12.80;81.90
6377;DHT22;3221;48.858;10.128;2023-05-31T04:20:55;12.70;82.20
6377;DHT22;3221;48.858;10.128;2023-05-31T04:23:22;13.00;82.20
6377;DHT22;3221;48.858;10.128;2023-05-31T04:25:51;12.80;81.70
6377;DHT22;3221;48.858;10.128;2023-05-31T04:28:18;12.80;81.50
6377;DHT22;3221;48.858;10.128;2023-05-31T04:30:46;12.90;82.50
6377;DHT22;3221;48.858;10.128;2023-05-31T04:33:13;12.90;81.20
6377;DHT22;3221;48.858;10.128;2023-05-31T04:35:45;12.90;80.60
6377;DHT22;3221;48.858;10.128;2023-05-31T04:38:13;13.00;80.40
6377;DHT22;3221;48.858;10.128;2023-05-31T04:40:57;13.00;80.70
6377;DHT22;3221;48.858;10.128;2023-05-31T04:43:31;13.10;80.80
6377;DHT22;3221;48.858;10.128;2023-05-31T04:46:01;12.90;80.60
6377;DHT22;3221;48.858;10.128;2023-05-31T04:48:37;12.90;81.20
6377;DHT22;3221;48.858;10.128;2023-05-31T04:51:05;12.90;80.80
6377;DHT22;3221;48.858;10.128;2023-05-31T04:53:54;12.90;81.80
6377;DHT22;3221;48.858;10.128;2023-05-31T04:56:29;12.90;80.40
6377;DHT22;3221;48.858;10.128;2023-05-31T04:58:57;12.90;81.60
6377;DHT22;3221;48.858;10.128;2023-05-31T05:01:26;12.90;80.00
6377;DHT22;3221;48.858;10.128;2023-05-31T05:04:14;13.10;81.10
6377;DHT22;3221;48.858;10.128;2023-05-31T05:06:43;13.00;81.70
6377;DHT22;3221;48.858;10.128;2023-05-31T05:09:12;13.10;81.50
6377;DHT22;3221;48.858;10.128;2023-05-31T05:11:39;13.00;81.20
6377;DHT22;3221;48.858;10.128;2023-05-31T05:14:06;13.00;81.80
6377;DHT22;3221;48.858;10.128;2023-05-31T05:16:34;13.10;80.70
6377;DHT22;3221;48.858;10.128;2023-05-31T05:19:03;13.10;80.70
6377;DHT22;3221;48.858;10.128;2023-05-31T05:21:32;13.20;81.50
6377;DHT22;3221;48.858;10.128;2023-05-31T05:23:59;13.20;81.30
6377;DHT22;3221;48.858;10.128;2023-05-31T05:26:27;13.50;81.40
6377;DHT22;3221;48.858;10.128;2023-05-31T05:28:55;13.20;81.00
6377;DHT22;3221;48.858;10.128;2023-05-31T05:31:22;13.10;81.70
6377;DHT22;3221;48.858;10.128;2023-05-31T05:33:53;13.20;81.50
6377;DHT22;3221;48.858;10.128;2023-05-31T05:36:21;13.10;81.10
6377;DHT22;3221;48.858;10.128;2023-05-31T05:38:51;13.30;83.10
6377;DHT22;3221;48.858;10.128;2023-05-31T05:41:18;13.20;81.70
6377;DHT22;3221;48.858;10.128;2023-05-31T05:43:45;13.40;81.20
6377;DHT22;3221;48.858;10.128;2023-05-31T05:46:15;13.30;81.10
6377;DHT22;3221;48.858;10.128;2023-05-31T05:48:42;13.30;81.40
6377;DHT22;3221;48.858;10.128;2023-05-31T05:51:09;13.40;81.20
6377;DHT22;3221;48.858;10.128;2023-05-31T05:53:37;13.40;82.20
6377;DHT22;3221;48.858;10.128;2023-05-31T05:56:05;13.50;81.80
6377;DHT22;3221;48.858;10.128;2023-05-31T05:58:41;13.50;82.40
6377;DHT22;3221;48.858;10.128;2023-05-31T06:01:39;13.50;82.40
6377;DHT22;3221;48.858;10.128;2023-05-31T06:04:10;13.70;82.40
6377;DHT22;3221;48.858;10.128;2023-05-31T06:06:37;13.60;82.20
6377;DHT22;3221;48.858;10.128;2023-05-31T06:09:04;13.60;82.30
6377;DHT22;3221;48.858;10.128;2023-05-31T06:11:31;13.70;82.60
6377;DHT22;3221;48.858;10.128;2023-05-31T06:13:58;13.80;81.90
6377;DHT22;3221;48.858;10.128;2023-05-31T06:16:31;13.90;81.90
6377;DHT22;3221;48.858;10.128;2023-05-31T06:18:58;13.90;81.90
6377;DHT22;3221;48.858;10.128;2023-05-31T06:21:25;14.10;81.60
6377;DHT22;3221;48.858;10.128;2023-05-31T06:23:52;13.90;81.30
6377;DHT22;3221;48.858;10.128;2023-05-31T06:26:19;13.90;82.00
6377;DHT22;3221;48.858;10.128;2023-05-31T06:28:46;14.00;82.00
6377;DHT22;3221;48.858;10.128;2023-05-31T06:31:33;14.20;81.90
6377;DHT22;3221;48.858;10.128;2023-05-31T06:34:00;14.10;81.70
6377;DHT22;3221;48.858;10.128;2023-05-31T06:36:28;14.30;82.40
6377;DHT22;3221;48.858;10.128;2023-05-31T06:38:55;14.30;82.20
6377;DHT22;3221;48.858;10.128;2023-05-31T06:41:22;14.30;82.50
6377;DHT22;3221;48.858;10.128;2023-05-31T06:43:50;14.40;82.80
6377;DHT22;3221;48.858;10.128;2023-05-31T06:46:39;14.50;82.60
6377;DHT22;3221;48.858;10.128;2023-05-31T06:49:33;14.50;82.70
6377;DHT22;3221;48.858;10.128;2023-05-31T06:52:14;14.60;83.10
6377;DHT22;3221;48.858;10.128;2023-05-31T06:54:59;14.60;83.20
6377;DHT22;3221;48.858;10.128;2023-05-31T06:57:26;14.70;83.20
6377;DHT22;3221;48.858;10.128;2023-05-31T06:59:54;14.80;83.40
6377;DHT22;3221;48.858;10.128;2023-05-31T07:02:21;14.70;82.40
6377;DHT22;3221;48.858;10.128;2023-05-31T07:04:48;14.80;83.20
6377;DHT22;3221;48.858;10.128;2023-05-31T07:07:16;14.90;83.10
6377;DHT22;3221;48.858;10.128;2023-05-31T07:09:43;15.00;83.00
6377;DHT22;3221;48.858;10.128;2023-05-31T07:12:11;15.00;82.60
6377;DHT22;3221;48.858;10.128;2023-05-31T07:14:39;15.10;82.60
6377;DHT22;3221;48.858;10.128;2023-05-31T07:17:06;15.30;82.10
6377;DHT22;3221;48.858;10.128;2023-05-31T07:19:43;15.30;82.10
6377;DHT22;3221;48.858;10.128;2023-05-31T07:22:11;15.20;82.20
6377;DHT22;3221;48.858;10.128;2023-05-31T07:24:38;15.20;82.00
6377;DHT22;3221;48.858;10.128;2023-05-31T07:27:06;15.40;82.20
6377;DHT22;3221;48.858;10.128;2023-05-31T07:29:34;15.40;82.60
6377;DHT22;3221;48.858;10.128;2023-05-31T07:32:02;15.50;82.30
6377;DHT22;3221;48.858;10.128;2023-05-31T07:34:29;15.50;82.90
6377;DHT22;3221;48.858;10.128;2023-05-31T07:36:55;15.60;83.50
6377;DHT22;3221;48.858;10.128;2023-05-31T07:39:23;15.60;85.00
6377;DHT22;3221;48.858;10.128;2023-05-31T07:41:50;15.70;83.00
6377;DHT22;3221;48.858;10.128;2023-05-31T07:44:17;15.80;81.60
6377;DHT22;3221;48.858;10.128;2023-05-31T07:46:45;15.90;81.70
6377;DHT22;3221;48.858;10.128;2023-05-31T07:49:12;15.90;79.70
6377;DHT22;3221;48.858;10.128;2023-05-31T07:51:39;16.10;80.50
6377;DHT22;3221;48.858;10.128;2023-05-31T07:54:06;16.00;79.70
6377;DHT22;3221;48.858;10.128;2023-05-31T07:56:33;16.20;80.80
6377;DHT22;3221;48.858;10.128;2023-05-31T07:59:00;16.20;80.10
6377;DHT22;3221;48.858;10.128;2023-05-31T08:01:27;16.20;80.70
6377;DHT22;3221;48.858;10.128;2023-05-31T08:04:04;16.30;80.40
6377;DHT22;3221;48.858;10.128;2023-05-31T08:06:31;16.30;79.80
6377;DHT22;3221;48.858;10.128;2023-05-31T08:09:00;16.40;80.00
6377;DHT22;3221;48.858;10.128;2023-05-31T08:11:27;16.30;78.40
6377;DHT22;3221;48.858;10.128;2023-05-31T08:13:54;16.30;79.70
6377;DHT22;3221;48.858;10.128;2023-05-31T08:16:21;16.40;78.80
6377;DHT22;3221;48.858;10.128;2023-05-31T08:18:48;16.50;79.20
6377;DHT22;3221;48.858;10.128;2023-05-31T08:21:15;16.80;77.90
6377;DHT22;3221;48.858;10.128;2023-05-31T08:23:42;16.90;78.00
6377;DHT22;3221;48.858;10.128;2023-05-31T08:26:11;16.90;79.10
6377;DHT22;3221;48.858;10.128;2023-05-31T08:28:38;17.10;79.40
6377;DHT22;3221;48.858;10.128;2023-05-31T08:31:04;17.00;78.70
6377;DHT22;3221;48.858;10.128;2023-05-31T08:33:32;17.20;78.70
6377;DHT22;3221;48.858;10.128;2023-05-31T08:35:59;17.10;79.60
6377;DHT22;3221;48.858;10.128;2023-05-31T08:38:28;17.10;79.60
6377;DHT22;3221;48.858;10.128;2023-05-31T08:40:58;17.30;79.40
6377;DHT22;3221;48.858;10.128;2023-05-31T08:43:28;17.30;79.10
6377;DHT22;3221;48.858;10.128;2023-05-31T08:45:55;17.40;79.20
6377;DHT22;3221;48.858;10.128;2023-05-31T08:48:24;17.40;78.40
6377;DHT22;3221;48.858;10.128;2023-05-31T08:50:56;17.40;79.90
6377;DHT22;3221;48.858;10.128;2023-05-31T08:53:26;17.50;81.30
6377;DHT22;3221;48.858;10.128;2023-05-31T08:55:55;17.50;80.20
6377;DHT22;3221;48.858;10.128;2023-05-31T08:58:22;17.60;79.80
6377;DHT22;3221;48.858;10.128;2023-05-31T09:00:50;17.60;80.10
6377;DHT22;3221;48.858;10.128;2023-05-31T09:03:18;17.60;80.90
6377;DHT22;3221;48.858;10.128;2023-05-31T09:05:45;17.80;80.00
6377;DHT22;3221;48.858;10.128;2023-05-31T09:08:13;17.80;80.50
6377;DHT22;3221;48.858;10.128;2023-05-31T09:10:40;18.00;80.80
6377;DHT22;3221;48.858;10.128;2023-05-31T09:13:08;18.00;81.70
6377;DHT22;3221;48.858;10.128;2023-05-31T09:15:36;17.90;79.80
6377;DHT22;3221;48.858;10.128;2023-05-31T09:18:18;18.10;80.10
6377;DHT22;3221;48.858;10.128;2023-05-31T09:20:49;18.20;80.40
6377;DHT22;3221;48.858;10.128;2023-05-31T09:23:17;18.20;81.10
6377;DHT22;3221;48.858;10.128;2023-05-31T09:25:54;18.20;79.50
6377;DHT22;3221;48.858;10.128;2023-05-31T09:28:22;18.30;80.20
6377;DHT22;3221;48.858;10.128;2023-05-31T09:31:09;18.40;80.30
6377;DHT22;3221;48.858;10.128;2023-05-31T09:33:37;18.50;80.20
6377;DHT22;3221;48.858;10.128;2023-05-31T09:36:05;18.40;80.60
6377;DHT22;3221;48.858;10.128;2023-05-31T09:38:34;18.40;80.00
6377;DHT22;3221;48.858;10.128;2023-05-31T09:41:20;18.60;78.60
6377;DHT22;3221;48.858;10.128;2023-05-31T09:43:48;18.60;79.70
6377;DHT22;3221;48.858;10.128;2023-05-31T09:46:20;18.80;78.80
6377;DHT22;3221;48.858;10.128;2023-05-31T09:49:03;18.90;77.60
6377;DHT22;3221;48.858;10.128;2023-05-31T09:51:33;18.80;79.30
6377;DHT22;3221;48.858;10.128;2023-05-31T09:54:13;18.80;79.40
6377;DHT22;3221;48.858;10.128;2023-05-31T09:56:41;18.90;80.60
6377;DHT22;3221;48.858;10.128;2023-05-31T09:59:10;18.90;80.00
6377;DHT22;3221;48.858;10.128;2023-05-31T10:01:37;19.00;79.50
6377;DHT22;3221;48.858;10.128;2023-05-31T10:04:05;19.10;77.10
6377;DHT22;3221;48.858;10.128;2023-05-31T10:06:33;19.30;78.30
6377;DHT22;3221;48.858;10.128;2023-05-31T10:09:07;19.10;78.80
6377;DHT22;3221;48.858;10.128;2023-05-31T10:11:36;19.10;78.80
6377;DHT22;3221;48.858;10.128;2023-05-31T10:14:08;19.20;77.70
6377;DHT22;3221;48.858;10.128;2023-05-31T10:16:45;19.20;75.60
6377;DHT22;3221;48.858;10.128;2023-05-31T10:19:19;19.20;76.50
6377;DHT22;3221;48.858;10.128;2023-05-31T10:21:51;19.30;77.00
6377;DHT22;3221;48.858;10.128;2023-05-31T10:24:25;19.30;77.00
6377;DHT22;3221;48.858;10.128;2023-05-31T10:27:16;19.30;77.60
6377;DHT22;3221;48.858;10.128;2023-05-31T10:29:51;19.30;75.70
6377;DHT22;3221;48.858;10.128;2023-05-31T10:32:21;19.30;73.10
6377;DHT22;3221;48.858;10.128;2023-05-31T10:34:50;19.40;76.50
6377;DHT22;3221;48.858;10.128;2023-05-31T10:37:17;19.50;77.00
6377;DHT22;3221;48.858;10.128;2023-05-31T10:43:22;19.60;73.60
6377;DHT22;3221;48.858;10.128;2023-05-31T10:45:33;19.60;75.40
6377;DHT22;3221;48.858;10.128;2023-05-31T10:51:01;19.90;71.80
6377;DHT22;3221;48.858;10.128;2023-05-31T10:53:36;19.90;71.70
6377;DHT22;3221;48.858;10.128;2023-05-31T10:56:09;20.00;74.60
6377;DHT22;3221;48.858;10.128;2023-05-31T10:58:39;20.10;70.60
6377;DHT22;3221;48.858;10.128;2023-05-31T11:01:08;20.20;71.70
6377;DHT22;3221;48.858;10.128;2023-05-31T11:03:44;20.30;71.20
6377;DHT22;3221;48.858;10.128;2023-05-31T11:06:15;20.30;73.80
6377;DHT22;3221;48.858;10.128;2023-05-31T11:08:59;20.30;71.20
6377;DHT22;3221;48.858;10.128;2023-05-31T11:14:03;20.20;74.60
6377;DHT22;3221;48.858;10.128;2023-05-31T11:16:31;20.30;73.50
6377;DHT22;3221;48.858;10.128;2023-05-31T11:19:04;20.20;70.30
6377;DHT22;3221;48.858;10.128;2023-05-31T11:24:47;20.70;67.50
6377;DHT22;3221;48.858;10.128;2023-05-31T11:27:19;20.60;68.40
6377;DHT22;3221;48.858;10.128;2023-05-31T11:35:06;20.60;66.60
6377;DHT22;3221;48.858;10.128;2023-05-31T11:37:38;20.80;68.30
6377;DHT22;3221;48.858;10.128;2023-05-31T11:40:07;20.90;68.80
6377;DHT22;3221;48.858;10.128;2023-05-31T11:42:37;20.90;68.30
6377;DHT22;3221;48.858;10.128;2023-05-31T11:45:06;20.90;70.40
6377;DHT22;3221;48.858;10.128;2023-05-31T11:47:53;21.00;68.90
6377;DHT22;3221;48.858;10.128;2023-05-31T11:50:23;21.10;69.00
6377;DHT22;3221;48.858;10.128;2023-05-31T11:52:51;21.00;67.20
6377;DHT22;3221;48.858;10.128;2023-05-31T11:55:21;21.00;69.60
6377;DHT22;3221;48.858;10.128;2023-05-31T11:57:49;20.90;66.70
6377;DHT22;3221;48.858;10.128;2023-05-31T12:00:20;20.90;65.40
6377;DHT22;3221;48.858;10.128;2023-05-31T12:02:56;21.10;68.40
6377;DHT22;3221;48.858;10.128;2023-05-31T12:05:24;21.10;70.60
6377;DHT22;3221;48.858;10.128;2023-05-31T12:07:55;21.10;71.00
6377;DHT22;3221;48.858;10.128;2023-05-31T12:10:31;21.10;66.60
6377;DHT22;3221;48.858;10.128;2023-05-31T12:12:59;21.20;64.30
6377;DHT22;3221;48.858;10.128;2023-05-31T12:15:30;21.20;63.30
6377;DHT22;3221;48.858;10.128;2023-05-31T12:17:58;21.30;63.70
6377;DHT22;3221;48.858;10.128;2023-05-31T12:20:30;21.30;64.80
6377;DHT22;3221;48.858;10.128;2023-05-31T12:23:11;21.30;65.10
6377;DHT22;3221;48.858;10.128;2023-05-31T12:25:49;21.40;63.30
6377;DHT22;3221;48.858;10.128;2023-05-31T12:28:20;21.50;67.00
6377;DHT22;3221;48.858;10.128;2023-05-31T12:30:49;21.60;66.60
6377;DHT22;3221;48.858;10.128;2023-05-31T12:33:19;21.60;69.50
6377;DHT22;3221;48.858;10.128;2023-05-31T12:35:47;21.60;67.00
6377;DHT22;3221;48.858;10.128;2023-05-31T12:38:15;21.60;67.70
6377;DHT22;3221;48.858;10.128;2023-05-31T12:40:43;21.70;66.00
6377;DHT22;3221;48.858;10.128;2023-05-31T12:43:12;21.80;66.10
6377;DHT22;3221;48.858;10.128;2023-05-31T12:45:42;21.60;69.00
6377;DHT22;3221;48.858;10.128;2023-05-31T12:48:10;21.60;68.80
6377;DHT22;3221;48.858;10.128;2023-05-31T12:50:47;21.60;67.60
6377;DHT22;3221;48.858;10.128;2023-05-31T12:53:15;21.50;66.50
6377;DHT22;3221;48.858;10.128;2023-05-31T12:55:43;21.50;66.10
6377;DHT22;3221;48.858;10.128;2023-05-31T12:58:10;21.60;65.90
6377;DHT22;3221;48.858;10.128;2023-05-31T13:00:37;21.70;65.30
6377;DHT22;3221;48.858;10.128;2023-05-31T13:03:04;21.70;66.30
6377;DHT22;3221;48.858;10.128;2023-05-31T13:05:33;21.80;67.00
6377;DHT22;3221;48.858;10.128;2023-05-31T13:08:00;21.90;70.60
6377;DHT22;3221;48.858;10.128;2023-05-31T13:10:27;22.10;63.20
6377;DHT22;3221;48.858;10.128;2023-05-31T13:12:54;22.20;65.60
6377;DHT22;3221;48.858;10.128;2023-05-31T13:15:21;22.10;66.20
6377;DHT22;3221;48.858;10.128;2023-05-31T13:17:48;22.10;66.20
6377;DHT22;3221;48.858;10.128;2023-05-31T13:20:15;22.20;64.50
6377;DHT22;3221;48.858;10.128;2023-05-31T13:22:43;22.20;67.70
6377;DHT22;3221;48.858;10.128;2023-05-31T13:25:10;22.10;68.20
6377;DHT22;3221;48.858;10.128;2023-05-31T13:27:37;22.10;66.40
6377;DHT22;3221;48.858;10.128;2023-05-31T13:30:07;22.10;63.90
6377;DHT22;3221;48.858;10.128;2023-05-31T13:32:35;22.10;64.80
6377;DHT22;3221;48.858;10.128;2023-05-31T13:35:04;22.00;67.40
6377;DHT22;3221;48.858;10.128;2023-05-31T13:37:32;22.00;67.30
6377;DHT22;3221;48.858;10.128;2023-05-31T13:39:59;21.90;69.30
6377;DHT22;3221;48.858;10.128;2023-05-31T13:42:27;21.90;68.70
6377;DHT22;3221;48.858;10.128;2023-05-31T13:44:54;21.90;69.10
6377;DHT22;3221;48.858;10.128;2023-05-31T13:47:21;21.90;69.30
6377;DHT22;3221;48.858;10.128;2023-05-31T13:49:48;21.90;69.60
6377;DHT22;3221;48.858;10.128;2023-05-31T13:52:15;22.00;70.00
6377;DHT22;3221;48.858;10.128;2023-05-31T13:54:42;22.20;68.10
6377;DHT22;3221;48.858;10.128;2023-05-31T13:57:10;22.40;64.30
6377;DHT22;3221;48.858;10.128;2023-05-31T13:59:38;22.30;67.00
6377;DHT22;3221;48.858;10.128;2023-05-31T14:02:05;22.30;68.80
6377;DHT22;3221;48.858;10.128;2023-05-31T14:04:33;22.30;66.50
6377;DHT22;3221;48.858;10.128;2023-05-31T14:07:00;22.40;65.10
6377;DHT22;3221;48.858;10.128;2023-05-31T14:09:29;22.30;67.60
6377;DHT22;3221;48.858;10.128;2023-05-31T14:11:56;22.50;67.50
6377;DHT22;3221;48.858;10.128;2023-05-31T14:14:25;22.50;66.50
6377;DHT22;3221;48.858;10.128;2023-05-31T14:16:53;22.50;68.50
6377;DHT22;3221;48.858;10.128;2023-05-31T14:19:20;22.60;68.60
6377;DHT22;3221;48.858;10.128;2023-05-31T14:21:47;22.60;69.40
6377;DHT22;3221;48.858;10.128;2023-05-31T14:24:14;22.50;68.60
6377;DHT22;3221;48.858;10.128;2023-05-31T14:26:43;22.40;69.10
6377;DHT22;3221;48.858;10.128;2023-05-31T14:29:10;22.60;65.30
6377;DHT22;3221;48.858;10.128;2023-05-31T14:31:37;22.70;63.60
6377;DHT22;3221;48.858;10.128;2023-05-31T14:34:04;22.80;66.70
6377;DHT22;3221;48.858;10.128;2023-05-31T14:36:32;23.00;67.60
6377;DHT22;3221;48.858;10.128;2023-05-31T14:38:59;22.90;63.70
6377;DHT22;3221;48.858;10.128;2023-05-31T14:41:27;22.80;66.60
6377;DHT22;3221;48.858;10.128;2023-05-31T14:43:54;22.80;67.30
6377;DHT22;3221;48.858;10.128;2023-05-31T14:46:21;23.00;66.10
6377;DHT22;3221;48.858;10.128;2023-05-31T14:48:51;22.90;67.80
6377;DHT22;3221;48.858;10.128;2023-05-31T14:51:29;23.00;66.70
6377;DHT22;3221;48.858;10.128;2023-05-31T14:53:57;23.00;65.90
6377;DHT22;3221;48.858;10.128;2023-05-31T14:56:24;23.20;65.10
6377;DHT22;3221;48.858;10.128;2023-05-31T14:58:53;23.10;65.50
6377;DHT22;3221;48.858;10.128;2023-05-31T15:01:20;23.10;61.90
6377;DHT22;3221;48.858;10.128;2023-05-31T15:03:47;23.10;66.00
6377;DHT22;3221;48.858;10.128;2023-05-31T15:06:14;23.00;65.90
6377;DHT22;3221;48.858;10.128;2023-05-31T15:08:42;23.10;65.30
6377;DHT22;3221;48.858;10.128;2023-05-31T15:11:09;23.10;65.00
6377;DHT22;3221;48.858;10.128;2023-05-31T15:13:37;23.10;63.30
6377;DHT22;3221;48.858;10.128;2023-05-31T15:16:04;23.00;65.40
6377;DHT22;3221;48.858;10.128;2023-05-31T15:18:31;23.10;64.40
6377;DHT22;3221;48.858;10.128;2023-05-31T15:20:58;23.30;65.10
6377;DHT22;3221;48.858;10.128;2023-05-31T15:23:25;23.40;60.50
6377;DHT22;3221;48.858;10.128;2023-05-31T15:25:52;23.40;63.40
6377;DHT22;3221;48.858;10.128;2023-05-31T15:28:19;23.40;63.50
6377;DHT22;3221;48.858;10.128;2023-05-31T15:30:46;23.40;62.20
6377;DHT22;3221;48.858;10.128;2023-05-31T15:33:13;23.40;62.10
6377;DHT22;3221;48.858;10.128;2023-05-31T15:35:40;23.30;64.40
6377;DHT22;3221;48.858;10.128;2023-05-31T15:38:06;23.30;63.20
6377;DHT22;3221;48.858;10.128;2023-05-31T15:40:34;23.20;63.40
6377;DHT22;3221;48.858;10.128;2023-05-31T15:43:01;23.10;65.10
6377;DHT22;3221;48.858;10.128;2023-05-31T15:45:28;23.00;63.00
6377;DHT22;3221;48.858;10.128;2023-05-31T15:47:55;22.80;61.40
6377;DHT22;3221;48.858;10.128;2023-05-31T15:50:22;22.70;63.40
6377;DHT22;3221;48.858;10.128;2023-05-31T15:52:48;22.50;59.10
6377;DHT22;3221;48.858;10.128;2023-05-31T15:55:15;22.40;64.70
6377;DHT22;3221;48.858;10.128;2023-05-31T15:57:43;22.20;61.20
6377;DHT22;3221;48.858;10.128;2023-05-31T16:00:10;22.20;62.60
6377;DHT22;3221;48.858;10.128;2023-05-31T16:02:37;22.10;63.20
6377;DHT22;3221;48.858;10.128;2023-05-31T16:05:05;22.10;65.30
6377;DHT22;3221;48.858;10.128;2023-05-31T16:07:38;22.10;64.00
6377;DHT22;3221;48.858;10.128;2023-05-31T16:10:05;22.00;61.90
6377;DHT22;3221;48.858;10.128;2023-05-31T16:12:32;21.90;61.60
6377;DHT22;3221;48.858;10.128;2023-05-31T16:14:59;21.80;64.80
6377;DHT22;3221;48.858;10.128;2023-05-31T16:17:26;21.80;64.10
6377;DHT22;3221;48.858;10.128;2023-05-31T16:19:53;21.70;65.30
6377;DHT22;3221;48.858;10.128;2023-05-31T16:22:20;21.80;65.10